North Island Naval Air Station-Halsey Field San Diego US
ICAO: KNZY
IATA: NZY
Category: Medium
Scheduled Services: No

Elevation: 26 ft
TransAlt. 18000 ft.

Airport Communications:
SOCAL APP/DEP:125.15
ATIS:31.78
CLNC DEL:128.4
GND:118
ARNG OPS:142.95
BASE OPS:35.55
PMSV METRO:34.235
TWR:135.1

KNZY Zoom In..

If you have problems with the map follow the link
https://www.worldairports.se/pages/airport.php?
ICAO=KNZY

Runways:

(A) RW 11 length 7500 ft width 200 ft
---- / hdg 108

(B) RW 18 length 8001 ft width 200 ft
---- / hdg 182

(C) RW 29 length 7500 ft width 200 ft
---- / hdg 288

(D) RW 36 length 8001 ft width 200 ft
---- / hdg 2

Location; KNZY
Day. 19 / Time. 19.52 Zulu
* Altimeter: 30.06
* Temperature: 17° c. 62.6°f.
* Wind from: 290° Speed 09 kn.
Dewpoint: 12° c.
Visibility: 9 Statute Miles.
Clouds: Few 1600 ft.

KNZY 191952Z 29009KT 9SM FEW016 17/12 A3006 RMK AO2 SLP179 T01670117


Wind From 290°
Speed 09 kn.

 
 
jpsmedia worldairports.se 2020   terms of use